sensor_id;sensor_type;location;lat;lon;timestamp;temperature;humidity
50013;DHT22;35901;48.694;9.476;2023-08-17T00:01:50;17.30;99.90
50013;DHT22;35901;48.694;9.476;2023-08-17T00:04:15;17.30;99.90
50013;DHT22;35901;48.694;9.476;2023-08-17T00:06:42;17.30;99.90
50013;DHT22;35901;48.694;9.476;2023-08-17T00:09:08;17.30;99.90
50013;DHT22;35901;48.694;9.476;2023-08-17T00:11:35;17.30;99.90
50013;DHT22;35901;48.694;9.476;2023-08-17T00:14:01;17.20;99.90
50013;DHT22;35901;48.694;9.476;2023-08-17T00:16:29;17.10;99.90
50013;DHT22;35901;48.694;9.476;2023-08-17T00:18:55;17.10;99.90
50013;DHT22;35901;48.694;9.476;2023-08-17T00:21:20;17.00;99.90
50013;DHT22;35901;48.694;9.476;2023-08-17T00:23:46;17.10;99.90
50013;DHT22;35901;48.694;9.476;2023-08-17T00:26:12;17.00;99.90
50013;DHT22;35901;48.694;9.476;2023-08-17T00:28:37;17.00;99.90
50013;DHT22;35901;48.694;9.476;2023-08-17T00:31:03;16.80;99.90
50013;DHT22;35901;48.694;9.476;2023-08-17T00:33:29;16.80;99.90
50013;DHT22;35901;48.694;9.476;2023-08-17T00:35:55;16.80;99.90
50013;DHT22;35901;48.694;9.476;2023-08-17T00:38:21;16.80;99.90
50013;DHT22;35901;48.694;9.476;2023-08-17T00:40:47;16.80;99.90
50013;DHT22;35901;48.694;9.476;2023-08-17T00:43:12;16.80;99.90
50013;DHT22;35901;48.694;9.476;2023-08-17T00:45:38;16.70;99.90
50013;DHT22;35901;48.694;9.476;2023-08-17T00:48:05;16.70;99.90
50013;DHT22;35901;48.694;9.476;2023-08-17T00:50:34;16.70;99.90
50013;DHT22;35901;48.694;9.476;2023-08-17T00:53:00;16.70;99.90
50013;DHT22;35901;48.694;9.476;2023-08-17T00:55:27;16.70;99.90
50013;DHT22;35901;48.694;9.476;2023-08-17T00:57:56;16.70;99.90
50013;DHT22;35901;48.694;9.476;2023-08-17T01:00:22;16.70;99.90
50013;DHT22;35901;48.694;9.476;2023-08-17T01:02:53;16.50;99.90
50013;DHT22;35901;48.694;9.476;2023-08-17T01:05:18;16.40;99.90
50013;DHT22;35901;48.694;9.476;2023-08-17T01:07:44;16.30;99.90
50013;DHT22;35901;48.694;9.476;2023-08-17T01:10:10;16.30;99.90
50013;DHT22;35901;48.694;9.476;2023-08-17T01:15:27;16.40;99.90
50013;DHT22;35901;48.694;9.476;2023-08-17T01:20:28;16.30;99.90
50013;DHT22;35901;48.694;9.476;2023-08-17T01:22:56;16.20;99.90
50013;DHT22;35901;48.694;9.476;2023-08-17T01:25:27;16.20;99.90
50013;DHT22;35901;48.694;9.476;2023-08-17T01:27:52;16.30;99.90
50013;DHT22;35901;48.694;9.476;2023-08-17T01:30:19;16.30;99.90
50013;DHT22;35901;48.694;9.476;2023-08-17T01:32:51;16.30;99.90
50013;DHT22;35901;48.694;9.476;2023-08-17T01:35:37;16.30;99.90
50013;DHT22;35901;48.694;9.476;2023-08-17T01:38:07;16.30;99.90
50013;DHT22;35901;48.694;9.476;2023-08-17T01:40:35;16.20;99.90
50013;DHT22;35901;48.694;9.476;2023-08-17T01:43:05;16.20;99.90
50013;DHT22;35901;48.694;9.476;2023-08-17T01:45:31;16.10;99.90
50013;DHT22;35901;48.694;9.476;2023-08-17T01:47:56;16.10;99.90
50013;DHT22;35901;48.694;9.476;2023-08-17T01:50:22;16.10;99.90
50013;DHT22;35901;48.694;9.476;2023-08-17T01:52:49;16.20;99.90
50013;DHT22;35901;48.694;9.476;2023-08-17T01:55:20;16.20;99.90
50013;DHT22;35901;48.694;9.476;2023-08-17T01:57:46;16.20;99.90
50013;DHT22;35901;48.694;9.476;2023-08-17T02:00:12;16.10;99.90
50013;DHT22;35901;48.694;9.476;2023-08-17T02:02:41;16.10;99.90
50013;DHT22;35901;48.694;9.476;2023-08-17T02:05:07;16.00;99.90
50013;DHT22;35901;48.694;9.476;2023-08-17T02:07:33;15.90;99.90
50013;DHT22;35901;48.694;9.476;2023-08-17T02:09:59;15.90;99.90
50013;DHT22;35901;48.694;9.476;2023-08-17T02:12:25;15.90;99.90
50013;DHT22;35901;48.694;9.476;2023-08-17T02:14:51;15.80;99.90
50013;DHT22;35901;48.694;9.476;2023-08-17T02:17:16;15.80;99.90
50013;DHT22;35901;48.694;9.476;2023-08-17T02:19:44;15.80;99.90
50013;DHT22;35901;48.694;9.476;2023-08-17T02:22:10;15.70;99.90
50013;DHT22;35901;48.694;9.476;2023-08-17T02:24:36;15.70;99.90
50013;DHT22;35901;48.694;9.476;2023-08-17T02:27:02;15.70;99.90
50013;DHT22;35901;48.694;9.476;2023-08-17T02:29:28;15.70;99.90
50013;DHT22;35901;48.694;9.476;2023-08-17T02:31:54;15.70;99.90
50013;DHT22;35901;48.694;9.476;2023-08-17T02:34:19;15.70;99.90
50013;DHT22;35901;48.694;9.476;2023-08-17T02:36:45;15.70;99.90
50013;DHT22;35901;48.694;9.476;2023-08-17T02:39:11;15.70;99.90
50013;DHT22;35901;48.694;9.476;2023-08-17T02:41:36;15.70;99.90
50013;DHT22;35901;48.694;9.476;2023-08-17T02:44:02;15.80;99.90
50013;DHT22;35901;48.694;9.476;2023-08-17T02:46:28;15.80;99.90
50013;DHT22;35901;48.694;9.476;2023-08-17T02:48:54;15.80;99.90
50013;DHT22;35901;48.694;9.476;2023-08-17T02:51:19;15.90;99.90
50013;DHT22;35901;48.694;9.476;2023-08-17T02:53:45;16.00;99.90
50013;DHT22;35901;48.694;9.476;2023-08-17T02:56:11;16.10;99.90
50013;DHT22;35901;48.694;9.476;2023-08-17T02:58:40;16.10;99.90
50013;DHT22;35901;48.694;9.476;2023-08-17T03:01:07;16.00;99.90
50013;DHT22;35901;48.694;9.476;2023-08-17T03:03:33;15.90;99.90
50013;DHT22;35901;48.694;9.476;2023-08-17T03:05:58;15.90;99.90
50013;DHT22;35901;48.694;9.476;2023-08-17T03:08:24;15.90;99.90
50013;DHT22;35901;48.694;9.476;2023-08-17T03:10:50;15.90;99.90
50013;DHT22;35901;48.694;9.476;2023-08-17T03:13:17;15.90;99.90
50013;DHT22;35901;48.694;9.476;2023-08-17T03:15:43;16.00;99.90
50013;DHT22;35901;48.694;9.476;2023-08-17T03:18:09;16.00;99.90
50013;DHT22;35901;48.694;9.476;2023-08-17T03:20:36;16.00;99.90
50013;DHT22;35901;48.694;9.476;2023-08-17T03:23:02;16.00;99.90
50013;DHT22;35901;48.694;9.476;2023-08-17T03:25:32;16.10;99.90
50013;DHT22;35901;48.694;9.476;2023-08-17T03:27:58;16.00;99.90
50013;DHT22;35901;48.694;9.476;2023-08-17T03:30:23;16.10;99.90
50013;DHT22;35901;48.694;9.476;2023-08-17T03:32:49;16.10;99.90
50013;DHT22;35901;48.694;9.476;2023-08-17T03:35:15;16.10;99.90
50013;DHT22;35901;48.694;9.476;2023-08-17T03:37:41;16.20;99.90
50013;DHT22;35901;48.694;9.476;2023-08-17T03:40:08;16.20;99.90
50013;DHT22;35901;48.694;9.476;2023-08-17T03:42:34;16.20;99.90
50013;DHT22;35901;48.694;9.476;2023-08-17T03:45:01;16.30;99.90
50013;DHT22;35901;48.694;9.476;2023-08-17T03:47:27;16.30;99.90
50013;DHT22;35901;48.694;9.476;2023-08-17T03:49:53;16.40;99.90
50013;DHT22;35901;48.694;9.476;2023-08-17T03:52:18;16.40;99.90
50013;DHT22;35901;48.694;9.476;2023-08-17T03:54:44;16.50;99.90
50013;DHT22;35901;48.694;9.476;2023-08-17T03:57:10;16.50;99.90
50013;DHT22;35901;48.694;9.476;2023-08-17T03:59:36;16.60;99.90
50013;DHT22;35901;48.694;9.476;2023-08-17T04:02:02;16.60;99.90
50013;DHT22;35901;48.694;9.476;2023-08-17T04:04:27;16.60;99.90
50013;DHT22;35901;48.694;9.476;2023-08-17T04:06:55;16.60;99.90
50013;DHT22;35901;48.694;9.476;2023-08-17T04:09:20;16.60;99.90
50013;DHT22;35901;48.694;9.476;2023-08-17T04:11:52;16.70;99.90
50013;DHT22;35901;48.694;9.476;2023-08-17T04:14:20;16.70;99.90
50013;DHT22;35901;48.694;9.476;2023-08-17T04:16:47;16.70;99.90
50013;DHT22;35901;48.694;9.476;2023-08-17T04:19:12;16.70;99.90
50013;DHT22;35901;48.694;9.476;2023-08-17T04:21:38;16.80;99.90
50013;DHT22;35901;48.694;9.476;2023-08-17T04:24:04;16.80;99.90
50013;DHT22;35901;48.694;9.476;2023-08-17T04:26:30;16.80;99.90
50013;DHT22;35901;48.694;9.476;2023-08-17T04:28:55;16.90;99.90
50013;DHT22;35901;48.694;9.476;2023-08-17T04:31:21;16.90;99.90
50013;DHT22;35901;48.694;9.476;2023-08-17T04:33:56;16.90;99.90
50013;DHT22;35901;48.694;9.476;2023-08-17T04:36:21;16.90;99.90
50013;DHT22;35901;48.694;9.476;2023-08-17T04:38:47;16.90;99.90
50013;DHT22;35901;48.694;9.476;2023-08-17T04:41:13;17.00;99.90
50013;DHT22;35901;48.694;9.476;2023-08-17T04:43:38;17.00;99.90
50013;DHT22;35901;48.694;9.476;2023-08-17T04:46:04;17.00;99.90
50013;DHT22;35901;48.694;9.476;2023-08-17T04:48:30;17.00;99.90
50013;DHT22;35901;48.694;9.476;2023-08-17T04:50:56;17.10;99.90
50013;DHT22;35901;48.694;9.476;2023-08-17T04:53:22;17.10;99.90
50013;DHT22;35901;48.694;9.476;2023-08-17T04:55:49;17.20;99.90
50013;DHT22;35901;48.694;9.476;2023-08-17T04:58:15;17.20;99.90
50013;DHT22;35901;48.694;9.476;2023-08-17T05:00:41;17.20;99.90
50013;DHT22;35901;48.694;9.476;2023-08-17T05:03:07;17.20;99.90
50013;DHT22;35901;48.694;9.476;2023-08-17T05:05:37;17.30;99.90
50013;DHT22;35901;48.694;9.476;2023-08-17T05:08:07;17.30;99.90
50013;DHT22;35901;48.694;9.476;2023-08-17T05:10:32;17.40;99.90
50013;DHT22;35901;48.694;9.476;2023-08-17T05:12:58;17.40;99.90
50013;DHT22;35901;48.694;9.476;2023-08-17T05:15:24;17.40;99.90
50013;DHT22;35901;48.694;9.476;2023-08-17T05:17:50;17.50;99.90
50013;DHT22;35901;48.694;9.476;2023-08-17T05:20:16;17.50;99.90
50013;DHT22;35901;48.694;9.476;2023-08-17T05:22:42;17.50;99.90
50013;DHT22;35901;48.694;9.476;2023-08-17T05:25:08;17.60;99.90
50013;DHT22;35901;48.694;9.476;2023-08-17T05:27:36;17.60;99.90
50013;DHT22;35901;48.694;9.476;2023-08-17T05:30:02;17.60;99.90
50013;DHT22;35901;48.694;9.476;2023-08-17T05:32:28;17.70;99.90
50013;DHT22;35901;48.694;9.476;2023-08-17T05:34:54;17.70;99.90
50013;DHT22;35901;48.694;9.476;2023-08-17T05:37:20;17.80;99.90
50013;DHT22;35901;48.694;9.476;2023-08-17T05:39:45;17.80;99.90
50013;DHT22;35901;48.694;9.476;2023-08-17T05:42:11;17.90;99.90
50013;DHT22;35901;48.694;9.476;2023-08-17T05:44:37;17.90;99.90
50013;DHT22;35901;48.694;9.476;2023-08-17T05:47:02;18.00;99.90
50013;DHT22;35901;48.694;9.476;2023-08-17T05:49:28;18.00;99.90
50013;DHT22;35901;48.694;9.476;2023-08-17T05:51:54;18.00;99.90
50013;DHT22;35901;48.694;9.476;2023-08-17T05:54:19;18.00;99.90
50013;DHT22;35901;48.694;9.476;2023-08-17T05:56:45;18.00;99.90
50013;DHT22;35901;48.694;9.476;2023-08-17T05:59:13;18.00;99.90
50013;DHT22;35901;48.694;9.476;2023-08-17T06:01:39;18.10;99.90
50013;DHT22;35901;48.694;9.476;2023-08-17T06:04:05;18.10;99.90
50013;DHT22;35901;48.694;9.476;2023-08-17T06:06:33;18.10;99.90
50013;DHT22;35901;48.694;9.476;2023-08-17T06:08:59;18.10;99.90
50013;DHT22;35901;48.694;9.476;2023-08-17T06:11:25;18.10;99.90
50013;DHT22;35901;48.694;9.476;2023-08-17T06:13:51;18.20;99.90
50013;DHT22;35901;48.694;9.476;2023-08-17T06:16:17;18.30;99.90
50013;DHT22;35901;48.694;9.476;2023-08-17T06:18:42;18.30;99.90
50013;DHT22;35901;48.694;9.476;2023-08-17T06:21:08;18.40;99.90
50013;DHT22;35901;48.694;9.476;2023-08-17T06:23:34;18.40;99.90
50013;DHT22;35901;48.694;9.476;2023-08-17T06:26:00;18.40;99.90
50013;DHT22;35901;48.694;9.476;2023-08-17T06:28:26;18.40;99.90
50013;DHT22;35901;48.694;9.476;2023-08-17T06:30:53;18.40;99.90
50013;DHT22;35901;48.694;9.476;2023-08-17T06:33:19;18.40;99.90
50013;DHT22;35901;48.694;9.476;2023-08-17T06:35:45;18.50;99.90
50013;DHT22;35901;48.694;9.476;2023-08-17T06:38:10;18.50;99.90
50013;DHT22;35901;48.694;9.476;2023-08-17T06:40:36;18.60;99.90
50013;DHT22;35901;48.694;9.476;2023-08-17T06:43:02;18.70;99.90
50013;DHT22;35901;48.694;9.476;2023-08-17T06:45:28;18.80;99.90
50013;DHT22;35901;48.694;9.476;2023-08-17T06:47:53;18.90;99.90
50013;DHT22;35901;48.694;9.476;2023-08-17T06:50:19;19.00;99.90
50013;DHT22;35901;48.694;9.476;2023-08-17T06:52:45;19.10;99.90
50013;DHT22;35901;48.694;9.476;2023-08-17T06:55:10;19.10;99.90
50013;DHT22;35901;48.694;9.476;2023-08-17T06:57:37;19.20;99.90
50013;DHT22;35901;48.694;9.476;2023-08-17T07:00:03;19.10;99.90
50013;DHT22;35901;48.694;9.476;2023-08-17T07:02:31;19.20;99.90
50013;DHT22;35901;48.694;9.476;2023-08-17T07:04:57;19.20;99.90
50013;DHT22;35901;48.694;9.476;2023-08-17T07:07:22;19.30;99.90
50013;DHT22;35901;48.694;9.476;2023-08-17T07:09:48;19.30;99.90
50013;DHT22;35901;48.694;9.476;2023-08-17T07:12:13;19.50;99.90
50013;DHT22;35901;48.694;9.476;2023-08-17T07:14:39;19.60;99.90
50013;DHT22;35901;48.694;9.476;2023-08-17T07:17:05;19.80;99.90
50013;DHT22;35901;48.694;9.476;2023-08-17T07:19:30;19.80;99.90
50013;DHT22;35901;48.694;9.476;2023-08-17T07:21:56;19.80;99.90
50013;DHT22;35901;48.694;9.476;2023-08-17T07:24:22;19.80;99.90
50013;DHT22;35901;48.694;9.476;2023-08-17T07:26:47;19.70;99.90
50013;DHT22;35901;48.694;9.476;2023-08-17T07:29:13;19.80;99.90
50013;DHT22;35901;48.694;9.476;2023-08-17T07:31:39;19.80;99.90
50013;DHT22;35901;48.694;9.476;2023-08-17T07:34:06;19.90;99.90
50013;DHT22;35901;48.694;9.476;2023-08-17T07:36:32;20.00;99.90
50013;DHT22;35901;48.694;9.476;2023-08-17T07:38:58;20.20;99.90
50013;DHT22;35901;48.694;9.476;2023-08-17T07:41:24;20.40;99.90
50013;DHT22;35901;48.694;9.476;2023-08-17T07:43:50;20.70;99.90
50013;DHT22;35901;48.694;9.476;2023-08-17T07:46:15;21.10;99.90
50013;DHT22;35901;48.694;9.476;2023-08-17T07:48:41;21.20;99.90
50013;DHT22;35901;48.694;9.476;2023-08-17T07:51:06;21.20;99.90
50013;DHT22;35901;48.694;9.476;2023-08-17T07:53:32;21.30;99.90
50013;DHT22;35901;48.694;9.476;2023-08-17T07:55:58;21.40;99.90
50013;DHT22;35901;48.694;9.476;2023-08-17T07:58:24;21.40;99.90
50013;DHT22;35901;48.694;9.476;2023-08-17T08:00:49;21.50;99.90
50013;DHT22;35901;48.694;9.476;2023-08-17T08:03:15;21.60;99.90
50013;DHT22;35901;48.694;9.476;2023-08-17T08:05:41;21.50;99.90
50013;DHT22;35901;48.694;9.476;2023-08-17T08:08:06;21.50;99.90
50013;DHT22;35901;48.694;9.476;2023-08-17T08:10:32;21.60;99.90
50013;DHT22;35901;48.694;9.476;2023-08-17T08:12:58;21.80;99.90
50013;DHT22;35901;48.694;9.476;2023-08-17T08:15:23;21.90;99.90
50013;DHT22;35901;48.694;9.476;2023-08-17T08:17:49;22.00;99.90
50013;DHT22;35901;48.694;9.476;2023-08-17T08:20:15;22.30;99.90
50013;DHT22;35901;48.694;9.476;2023-08-17T08:22:40;22.50;99.90
50013;DHT22;35901;48.694;9.476;2023-08-17T08:25:06;22.80;99.90
50013;DHT22;35901;48.694;9.476;2023-08-17T08:27:32;23.30;99.90
50013;DHT22;35901;48.694;9.476;2023-08-17T08:29:58;23.80;99.90
50013;DHT22;35901;48.694;9.476;2023-08-17T08:32:23;24.00;99.90
50013;DHT22;35901;48.694;9.476;2023-08-17T08:34:49;24.00;99.90
50013;DHT22;35901;48.694;9.476;2023-08-17T08:37:15;23.80;99.90
50013;DHT22;35901;48.694;9.476;2023-08-17T08:39:55;23.70;99.90
50013;DHT22;35901;48.694;9.476;2023-08-17T08:42:21;23.60;99.90
50013;DHT22;35901;48.694;9.476;2023-08-17T08:44:49;23.80;99.90
50013;DHT22;35901;48.694;9.476;2023-08-17T08:47:16;24.10;99.90
50013;DHT22;35901;48.694;9.476;2023-08-17T08:50:02;24.70;99.90
50013;DHT22;35901;48.694;9.476;2023-08-17T08:53:01;25.10;99.90
50013;DHT22;35901;48.694;9.476;2023-08-17T08:55:30;25.20;99.90
50013;DHT22;35901;48.694;9.476;2023-08-17T08:57:59;25.00;99.90
50013;DHT22;35901;48.694;9.476;2023-08-17T09:00:26;25.00;99.90
50013;DHT22;35901;48.694;9.476;2023-08-17T09:02:53;25.20;99.90
50013;DHT22;35901;48.694;9.476;2023-08-17T09:05:19;25.40;99.90
50013;DHT22;35901;48.694;9.476;2023-08-17T09:07:50;25.50;99.90
50013;DHT22;35901;48.694;9.476;2023-08-17T09:10:17;25.50;99.90
50013;DHT22;35901;48.694;9.476;2023-08-17T09:12:45;25.60;99.90
50013;DHT22;35901;48.694;9.476;2023-08-17T09:15:11;25.70;99.90
50013;DHT22;35901;48.694;9.476;2023-08-17T09:17:37;25.80;99.90
50013;DHT22;35901;48.694;9.476;2023-08-17T09:20:04;26.00;99.90
50013;DHT22;35901;48.694;9.476;2023-08-17T09:22:40;25.90;99.90
50013;DHT22;35901;48.694;9.476;2023-08-17T09:25:06;25.90;99.90
50013;DHT22;35901;48.694;9.476;2023-08-17T09:27:32;26.00;99.90
50013;DHT22;35901;48.694;9.476;2023-08-17T09:30:10;26.10;99.90
50013;DHT22;35901;48.694;9.476;2023-08-17T09:32:36;26.20;99.90
50013;DHT22;35901;48.694;9.476;2023-08-17T09:35:05;26.50;99.90
50013;DHT22;35901;48.694;9.476;2023-08-17T09:37:32;26.70;99.90
50013;DHT22;35901;48.694;9.476;2023-08-17T09:39:58;26.70;99.90
50013;DHT22;35901;48.694;9.476;2023-08-17T09:42:24;27.00;99.90
50013;DHT22;35901;48.694;9.476;2023-08-17T09:44:52;27.10;99.90
50013;DHT22;35901;48.694;9.476;2023-08-17T09:47:18;27.10;99.90
50013;DHT22;35901;48.694;9.476;2023-08-17T09:49:52;27.20;99.90
50013;DHT22;35901;48.694;9.476;2023-08-17T09:52:21;27.20;99.90
50013;DHT22;35901;48.694;9.476;2023-08-17T09:54:47;27.40;99.90
50013;DHT22;35901;48.694;9.476;2023-08-17T09:57:13;27.60;99.90
50013;DHT22;35901;48.694;9.476;2023-08-17T09:59:40;27.70;99.90
50013;DHT22;35901;48.694;9.476;2023-08-17T10:02:24;27.70;99.90
50013;DHT22;35901;48.694;9.476;2023-08-17T10:04:52;27.80;99.90
50013;DHT22;35901;48.694;9.476;2023-08-17T10:07:20;27.70;99.90
50013;DHT22;35901;48.694;9.476;2023-08-17T10:09:53;27.60;99.90
50013;DHT22;35901;48.694;9.476;2023-08-17T10:12:23;27.60;99.90
50013;DHT22;35901;48.694;9.476;2023-08-17T10:14:55;27.60;99.90
50013;DHT22;35901;48.694;9.476;2023-08-17T10:17:29;27.80;99.90
50013;DHT22;35901;48.694;9.476;2023-08-17T10:19:58;28.10;99.90
50013;DHT22;35901;48.694;9.476;2023-08-17T10:22:41;28.40;99.90
50013;DHT22;35901;48.694;9.476;2023-08-17T10:25:11;28.40;99.90
50013;DHT22;35901;48.694;9.476;2023-08-17T10:27:40;28.30;99.90
50013;DHT22;35901;48.694;9.476;2023-08-17T10:30:11;28.20;99.90
50013;DHT22;35901;48.694;9.476;2023-08-17T10:32:38;28.10;99.90
50013;DHT22;35901;48.694;9.476;2023-08-17T10:35:04;28.30;99.90
50013;DHT22;35901;48.694;9.476;2023-08-17T10:37:32;28.50;99.90
50013;DHT22;35901;48.694;9.476;2023-08-17T10:39:58;28.80;99.90
50013;DHT22;35901;48.694;9.476;2023-08-17T10:42:35;29.00;99.90
50013;DHT22;35901;48.694;9.476;2023-08-17T10:47:49;29.10;99.90
50013;DHT22;35901;48.694;9.476;2023-08-17T10:50:24;29.20;99.90
50013;DHT22;35901;48.694;9.476;2023-08-17T10:52:51;29.40;99.90
50013;DHT22;35901;48.694;9.476;2023-08-17T10:55:41;29.90;99.90
50013;DHT22;35901;48.694;9.476;2023-08-17T10:58:08;30.10;99.90
50013;DHT22;35901;48.694;9.476;2023-08-17T11:00:38;29.90;99.90
50013;DHT22;35901;48.694;9.476;2023-08-17T11:03:05;29.50;99.90
50013;DHT22;35901;48.694;9.476;2023-08-17T11:05:41;29.40;99.90
50013;DHT22;35901;48.694;9.476;2023-08-17T11:08:10;29.40;99.90
50013;DHT22;35901;48.694;9.476;2023-08-17T11:10:37;29.50;99.90
50013;DHT22;35901;48.694;9.476;2023-08-17T11:13:04;29.50;99.90
50013;DHT22;35901;48.694;9.476;2023-08-17T11:15:42;29.90;99.90
50013;DHT22;35901;48.694;9.476;2023-08-17T11:18:09;30.00;99.90
50013;DHT22;35901;48.694;9.476;2023-08-17T11:20:37;29.90;99.90
50013;DHT22;35901;48.694;9.476;2023-08-17T11:23:04;29.90;99.90
50013;DHT22;35901;48.694;9.476;2023-08-17T11:25:31;30.10;99.90
50013;DHT22;35901;48.694;9.476;2023-08-17T11:27:59;30.30;99.90
50013;DHT22;35901;48.694;9.476;2023-08-17T11:30:24;30.70;99.90
50013;DHT22;35901;48.694;9.476;2023-08-17T11:32:52;30.70;99.90
50013;DHT22;35901;48.694;9.476;2023-08-17T11:35:19;30.70;99.90
50013;DHT22;35901;48.694;9.476;2023-08-17T11:37:45;30.70;99.90
50013;DHT22;35901;48.694;9.476;2023-08-17T11:40:14;30.60;99.90
50013;DHT22;35901;48.694;9.476;2023-08-17T11:42:41;30.30;99.90
50013;DHT22;35901;48.694;9.476;2023-08-17T11:45:08;30.40;99.90
50013;DHT22;35901;48.694;9.476;2023-08-17T11:47:40;30.70;99.90
50013;DHT22;35901;48.694;9.476;2023-08-17T11:50:10;31.00;99.90
50013;DHT22;35901;48.694;9.476;2023-08-17T11:52:36;30.90;99.90
50013;DHT22;35901;48.694;9.476;2023-08-17T11:55:06;30.90;99.90
50013;DHT22;35901;48.694;9.476;2023-08-17T11:57:36;31.20;99.90
50013;DHT22;35901;48.694;9.476;2023-08-17T12:00:04;31.40;99.90
50013;DHT22;35901;48.694;9.476;2023-08-17T12:02:31;31.50;99.90
50013;DHT22;35901;48.694;9.476;2023-08-17T12:05:03;31.60;99.70
50013;DHT22;35901;48.694;9.476;2023-08-17T12:07:32;31.50;99.90
50013;DHT22;35901;48.694;9.476;2023-08-17T12:09:57;31.10;99.90
50013;DHT22;35901;48.694;9.476;2023-08-17T12:12:23;30.90;99.90
50013;DHT22;35901;48.694;9.476;2023-08-17T12:14:49;30.60;99.90
50013;DHT22;35901;48.694;9.476;2023-08-17T12:19:48;30.30;99.90
50013;DHT22;35901;48.694;9.476;2023-08-17T12:22:13;30.20;99.90
50013;DHT22;35901;48.694;9.476;2023-08-17T12:24:39;30.00;99.90
50013;DHT22;35901;48.694;9.476;2023-08-17T12:27:08;29.80;99.90
50013;DHT22;35901;48.694;9.476;2023-08-17T12:29:33;29.50;99.90
50013;DHT22;35901;48.694;9.476;2023-08-17T12:32:01;29.20;99.90
50013;DHT22;35901;48.694;9.476;2023-08-17T12:34:27;28.90;99.90
50013;DHT22;35901;48.694;9.476;2023-08-17T12:36:53;28.60;99.90
50013;DHT22;35901;48.694;9.476;2023-08-17T12:39:19;28.40;99.90
50013;DHT22;35901;48.694;9.476;2023-08-17T12:41:44;28.10;99.90
50013;DHT22;35901;48.694;9.476;2023-08-17T12:44:10;28.00;99.90
50013;DHT22;35901;48.694;9.476;2023-08-17T12:46:42;27.80;99.90
50013;DHT22;35901;48.694;9.476;2023-08-17T12:49:07;27.60;99.90
50013;DHT22;35901;48.694;9.476;2023-08-17T12:51:33;27.40;99.90
50013;DHT22;35901;48.694;9.476;2023-08-17T12:53:59;27.30;99.90
50013;DHT22;35901;48.694;9.476;2023-08-17T12:56:25;27.10;99.90
50013;DHT22;35901;48.694;9.476;2023-08-17T12:58:51;26.90;99.90
50013;DHT22;35901;48.694;9.476;2023-08-17T13:01:17;26.80;99.90
50013;DHT22;35901;48.694;9.476;2023-08-17T13:03:44;26.70;99.90
50013;DHT22;35901;48.694;9.476;2023-08-17T13:06:09;26.60;99.90
50013;DHT22;35901;48.694;9.476;2023-08-17T13:08:35;26.50;99.90
50013;DHT22;35901;48.694;9.476;2023-08-17T13:11:01;26.40;99.90
50013;DHT22;35901;48.694;9.476;2023-08-17T13:13:27;26.30;99.90
50013;DHT22;35901;48.694;9.476;2023-08-17T13:15:53;26.20;99.90
50013;DHT22;35901;48.694;9.476;2023-08-17T13:18:18;26.00;99.90
50013;DHT22;35901;48.694;9.476;2023-08-17T13:20:44;25.90;99.90
50013;DHT22;35901;48.694;9.476;2023-08-17T13:23:10;25.80;99.90
50013;DHT22;35901;48.694;9.476;2023-08-17T13:25:36;25.80;99.90
50013;DHT22;35901;48.694;9.476;2023-08-17T13:28:02;25.70;99.90
50013;DHT22;35901;48.694;9.476;2023-08-17T13:30:28;25.60;99.90
50013;DHT22;35901;48.694;9.476;2023-08-17T13:32:53;25.60;99.90
50013;DHT22;35901;48.694;9.476;2023-08-17T13:35:19;25.50;99.90
50013;DHT22;35901;48.694;9.476;2023-08-17T13:37:45;25.40;99.90
50013;DHT22;35901;48.694;9.476;2023-08-17T13:40:11;25.40;99.90
50013;DHT22;35901;48.694;9.476;2023-08-17T13:42:36;25.40;99.90
50013;DHT22;35901;48.694;9.476;2023-08-17T13:45:02;25.30;99.90
50013;DHT22;35901;48.694;9.476;2023-08-17T13:47:29;25.30;99.90
50013;DHT22;35901;48.694;9.476;2023-08-17T13:49:54;25.20;99.90
50013;DHT22;35901;48.694;9.476;2023-08-17T13:52:21;24.90;99.90
50013;DHT22;35901;48.694;9.476;2023-08-17T13:54:48;24.80;99.90
50013;DHT22;35901;48.694;9.476;2023-08-17T13:57:13;24.80;99.90
50013;DHT22;35901;48.694;9.476;2023-08-17T13:59:39;24.60;99.90
50013;DHT22;35901;48.694;9.476;2023-08-17T14:02:06;24.50;99.90
50013;DHT22;35901;48.694;9.476;2023-08-17T14:04:31;24.40;99.90
50013;DHT22;35901;48.694;9.476;2023-08-17T14:06:57;24.30;99.90
50013;DHT22;35901;48.694;9.476;2023-08-17T14:09:23;24.20;99.90
50013;DHT22;35901;48.694;9.476;2023-08-17T14:11:48;24.10;99.90
50013;DHT22;35901;48.694;9.476;2023-08-17T14:14:14;24.10;99.90
50013;DHT22;35901;48.694;9.476;2023-08-17T14:16:40;24.20;99.90
50013;DHT22;35901;48.694;9.476;2023-08-17T14:19:05;24.30;99.90
50013;DHT22;35901;48.694;9.476;2023-08-17T14:21:31;24.40;99.90
50013;DHT22;35901;48.694;9.476;2023-08-17T14:23:57;24.50;99.90
50013;DHT22;35901;48.694;9.476;2023-08-17T14:26:22;24.60;99.90
50013;DHT22;35901;48.694;9.476;2023-08-17T14:28:48;24.50;99.90
50013;DHT22;35901;48.694;9.476;2023-08-17T14:31:14;24.50;99.90
50013;DHT22;35901;48.694;9.476;2023-08-17T14:33:43;24.50;99.90
50013;DHT22;35901;48.694;9.476;2023-08-17T14:36:12;24.50;99.90
50013;DHT22;35901;48.694;9.476;2023-08-17T14:38:37;24.50;99.90
50013;DHT22;35901;48.694;9.476;2023-08-17T14:41:03;24.40;99.90
50013;DHT22;35901;48.694;9.476;2023-08-17T14:43:30;24.40;99.90
50013;DHT22;35901;48.694;9.476;2023-08-17T14:45:56;24.30;99.90
50013;DHT22;35901;48.694;9.476;2023-08-17T14:48:22;24.20;99.90
50013;DHT22;35901;48.694;9.476;2023-08-17T14:50:48;24.20;99.90
50013;DHT22;35901;48.694;9.476;2023-08-17T14:53:13;24.20;99.90
50013;DHT22;35901;48.694;9.476;2023-08-17T14:55:39;24.20;99.90
50013;DHT22;35901;48.694;9.476;2023-08-17T14:58:05;24.20;99.90
50013;DHT22;35901;48.694;9.476;2023-08-17T15:00:31;24.20;99.90
50013;DHT22;35901;48.694;9.476;2023-08-17T15:02:57;24.20;99.90
50013;DHT22;35901;48.694;9.476;2023-08-17T15:05:24;24.20;99.90
50013;DHT22;35901;48.694;9.476;2023-08-17T15:07:49;24.10;99.90
50013;DHT22;35901;48.694;9.476;2023-08-17T15:10:15;24.00;99.90
50013;DHT22;35901;48.694;9.476;2023-08-17T15:12:41;23.90;99.90
50013;DHT22;35901;48.694;9.476;2023-08-17T15:15:07;23.80;99.90
50013;DHT22;35901;48.694;9.476;2023-08-17T15:17:33;23.80;99.90
50013;DHT22;35901;48.694;9.476;2023-08-17T15:19:59;23.70;99.90
50013;DHT22;35901;48.694;9.476;2023-08-17T15:22:26;23.60;99.90
50013;DHT22;35901;48.694;9.476;2023-08-17T15:24:51;23.50;99.90
50013;DHT22;35901;48.694;9.476;2023-08-17T15:27:17;23.50;99.90
50013;DHT22;35901;48.694;9.476;2023-08-17T15:29:43;23.50;99.90
50013;DHT22;35901;48.694;9.476;2023-08-17T15:32:09;23.50;99.90
50013;DHT22;35901;48.694;9.476;2023-08-17T15:34:35;23.60;99.90
50013;DHT22;35901;48.694;9.476;2023-08-17T15:37:01;23.60;99.90
50013;DHT22;35901;48.694;9.476;2023-08-17T15:39:27;23.60;99.90